Time;durP1;ratioP1;P1;durP2;ratioP2;P2;SDS_P1;SDS_P2;PMS_P1;PMS_P2;Temp;Humidity;BMP_temperature;BMP_pressure;BME280_temperature;BME280_humidity;BME280_pressure;Samples;Min_cycle;Max_cycle;Signal;HPM_P1;HPM_P2
2021/07/28 00:01:37;;;;;;;15.40;13.80;;;;;;;;;;5094498;28;20410;-71
2021/07/28 00:04:04;;;;;;;13.87;12.47;;;;;;;;;;5094320;28;20913;-70
2021/07/28 00:06:29;;;;;;;13.80;12.60;;;;;;;;;;5094158;28;20409;-71
2021/07/28 00:08:56;;;;;;;15.30;12.90;;;;;;;;;;5094148;28;20406;-73
2021/07/28 00:11:22;;;;;;;14.03;12.63;;;;;;;;;;5094394;28;20411;-71
2021/07/28 00:13:48;;;;;;;14.23;12.90;;;;;;;;;;5094174;28;20521;-71
2021/07/28 00:16:14;;;;;;;13.17;11.97;;;;;;;;;;5094825;28;20409;-71
2021/07/28 00:18:48;;;;;;;15.37;12.90;;;;;;;;;;5093813;28;20405;-70
2021/07/28 00:23:58;;;;;;;13.50;12.27;;;;;;;;;;5073828;28;20441;-69
2021/07/28 00:26:24;;;;;;;14.00;12.70;;;;;;;;;;5073611;28;20903;-72
2021/07/28 00:28:50;;;;;;;13.70;12.40;;;;;;;;;;5073037;28;20903;-72
2021/07/28 00:31:16;;;;;;;12.43;11.27;;;;;;;;;;5073690;28;20422;-72
2021/07/28 00:33:42;;;;;;;12.43;11.30;;;;;;;;;;5084990;28;20421;-73
2021/07/28 00:36:08;;;;;;;12.23;11.03;;;;;;;;;;5094180;28;20413;-72
2021/07/28 00:38:34;;;;;;;12.70;11.50;;;;;;;;;;5084121;28;20472;-70
2021/07/28 00:41:01;;;;;;;11.57;10.47;;;;;;;;;;5073761;28;20423;-69
2021/07/28 00:43:29;;;;;;;11.77;10.67;;;;;;;;;;5073032;28;20436;-74
2021/07/28 00:45:55;;;;;;;10.93;9.93;;;;;;;;;;5091966;28;20462;-70
2021/07/28 00:48:21;;;;;;;11.00;10.00;;;;;;;;;;5093393;28;20495;-71
2021/07/28 00:50:47;;;;;;;10.83;9.83;;;;;;;;;;5088406;28;20415;-73
2021/07/28 00:53:18;;;;;;;10.13;9.10;;;;;;;;;;5073164;28;20433;-71
2021/07/28 00:55:45;;;;;;;9.87;8.97;;;;;;;;;;5072029;28;20436;-70
2021/07/28 00:58:11;;;;;;;10.00;9.10;;;;;;;;;;5085817;28;20409;-71
2021/07/28 01:00:37;;;;;;;9.27;8.43;;;;;;;;;;5093732;28;20421;-72
2021/07/28 01:03:03;;;;;;;9.10;8.13;;;;;;;;;;5063413;28;20929;-71
2021/07/28 01:05:30;;;;;;;8.40;7.70;;;;;;;;;;5072693;28;20800;-74
2021/07/28 01:07:56;;;;;;;7.37;6.70;;;;;;;;;;5078837;28;20472;-70
2021/07/28 01:10:22;;;;;;;7.40;6.70;;;;;;;;;;5073191;28;20495;-72
2021/07/28 01:12:52;;;;;;;6.50;5.90;;;;;;;;;;5072911;28;20434;-73
2021/07/28 01:16:01;;;;;;;7.10;6.50;;;;;;;;;;5073022;28;20456;-71
2021/07/28 01:18:08;;;;;;;7.90;7.20;;;;;;;;;;5069347;28;20449;-71
2021/07/28 01:20:39;;;;;;;6.83;6.33;;;;;;;;;;5073039;28;20407;-74
2021/07/28 01:23:08;;;;;;;7.90;7.20;;;;;;;;;;5072725;28;20941;-73
2021/07/28 01:25:35;;;;;;;7.43;6.73;;;;;;;;;;5073323;28;20469;-73
2021/07/28 01:28:02;;;;;;;8.33;7.07;;;;;;;;;;5072732;28;20423;-71
2021/07/28 01:30:29;;;;;;;8.30;7.50;;;;;;;;;;5072946;28;20410;-73
2021/07/28 01:32:55;;;;;;;7.27;6.63;;;;;;;;;;5072840;28;20426;-73
2021/07/28 01:35:22;;;;;;;7.30;6.60;;;;;;;;;;5072935;28;20450;-70
2021/07/28 01:37:48;;;;;;;8.17;7.40;;;;;;;;;;5072365;28;20895;-71
2021/07/28 01:40:14;;;;;;;7.80;7.10;;;;;;;;;;5072217;28;20514;-72
2021/07/28 01:42:43;;;;;;;8.60;7.80;;;;;;;;;;5077616;28;20515;-69
2021/07/28 01:45:10;;;;;;;8.80;7.90;;;;;;;;;;5074112;28;20450;-70
2021/07/28 01:47:36;;;;;;;8.43;7.63;;;;;;;;;;5071257;28;20422;-73
2021/07/28 01:50:03;;;;;;;8.17;7.40;;;;;;;;;;5073292;28;20417;-71
2021/07/28 01:52:29;;;;;;;8.40;7.60;;;;;;;;;;5070631;28;20837;-73
2021/07/28 01:54:55;;;;;;;8.13;7.20;;;;;;;;;;5066169;28;20459;-73
2021/07/28 01:57:21;;;;;;;8.03;7.33;;;;;;;;;;5077547;28;20505;-73
2021/07/28 01:59:47;;;;;;;8.70;7.90;;;;;;;;;;5079034;28;20450;-70
2021/07/28 02:02:13;;;;;;;7.40;6.70;;;;;;;;;;5071342;28;20443;-70
2021/07/28 02:04:39;;;;;;;7.73;7.00;;;;;;;;;;5072253;28;20515;-73
2021/07/28 02:07:05;;;;;;;8.00;7.30;;;;;;;;;;5071483;28;20948;-70
2021/07/28 02:09:31;;;;;;;7.57;6.83;;;;;;;;;;5072689;28;20401;-72
2021/07/28 02:11:57;;;;;;;8.27;7.53;;;;;;;;;;5072775;28;20776;-71
2021/07/28 02:14:23;;;;;;;7.73;7.03;;;;;;;;;;5072581;28;20415;-71
2021/07/28 02:16:49;;;;;;;7.80;7.10;;;;;;;;;;5065790;28;20472;-70
2021/07/28 02:19:15;;;;;;;7.83;7.13;;;;;;;;;;5073212;28;20410;-74
2021/07/28 02:21:41;;;;;;;7.57;6.87;;;;;;;;;;5074803;28;20426;-71
2021/07/28 02:24:07;;;;;;;8.00;7.03;;;;;;;;;;5057593;28;20467;-72
2021/07/28 02:26:33;;;;;;;7.80;7.10;;;;;;;;;;5093993;28;20424;-71
2021/07/28 02:28:59;;;;;;;7.50;6.90;;;;;;;;;;5072298;28;20907;-71
2021/07/28 02:31:25;;;;;;;7.30;6.60;;;;;;;;;;5078964;28;20499;-70
2021/07/28 02:33:51;;;;;;;7.93;7.23;;;;;;;;;;5079640;28;20435;-70
2021/07/28 02:36:17;;;;;;;7.27;6.60;;;;;;;;;;5071538;28;20421;-71
2021/07/28 02:38:43;;;;;;;8.53;7.73;;;;;;;;;;5075360;28;20414;-72
2021/07/28 02:41:09;;;;;;;7.30;6.70;;;;;;;;;;5075761;28;20490;-70
2021/07/28 02:43:35;;;;;;;7.90;7.20;;;;;;;;;;5075023;28;20463;-72
2021/07/28 02:46:01;;;;;;;8.53;6.97;;;;;;;;;;5072737;28;20542;-70
2021/07/28 02:48:27;;;;;;;7.50;6.70;;;;;;;;;;5079198;28;20409;-70
2021/07/28 02:50:53;;;;;;;6.73;6.13;;;;;;;;;;5073114;28;20448;-71
2021/07/28 02:53:22;;;;;;;8.40;7.60;;;;;;;;;;5071877;28;20784;-70
2021/07/28 02:55:48;;;;;;;8.57;7.77;;;;;;;;;;5093858;28;20445;-70
2021/07/28 02:58:14;;;;;;;8.43;7.63;;;;;;;;;;5074489;28;20462;-71
2021/07/28 03:00:40;;;;;;;7.67;6.97;;;;;;;;;;5065792;28;20414;-72
2021/07/28 03:03:08;;;;;;;7.90;7.20;;;;;;;;;;5068908;28;20470;-71
2021/07/28 03:05:34;;;;;;;8.97;8.03;;;;;;;;;;5073944;28;20886;-71
2021/07/28 03:08:00;;;;;;;8.17;7.37;;;;;;;;;;5075081;28;20414;-70
2021/07/28 03:10:26;;;;;;;8.70;7.80;;;;;;;;;;5072667;28;20797;-71
2021/07/28 03:12:52;;;;;;;7.87;7.17;;;;;;;;;;5073995;28;20431;-72
2021/07/28 03:15:18;;;;;;;8.80;7.90;;;;;;;;;;5075303;28;20468;-72
2021/07/28 03:17:44;;;;;;;8.30;7.60;;;;;;;;;;5069674;28;20515;-70
2021/07/28 03:20:10;;;;;;;7.90;7.20;;;;;;;;;;5093851;28;20418;-72
2021/07/28 03:22:36;;;;;;;7.90;7.10;;;;;;;;;;5069720;28;20440;-73
2021/07/28 03:25:03;;;;;;;8.90;7.97;;;;;;;;;;5094469;28;20578;-71
2021/07/28 03:27:29;;;;;;;7.80;7.10;;;;;;;;;;5075111;28;20472;-71
2021/07/28 03:29:55;;;;;;;11.13;7.90;;;;;;;;;;5074196;28;20790;-70
2021/07/28 03:32:21;;;;;;;8.53;7.77;;;;;;;;;;5074276;28;20442;-73
2021/07/28 03:34:47;;;;;;;9.70;8.27;;;;;;;;;;5074052;28;20425;-73
2021/07/28 03:37:13;;;;;;;8.40;7.50;;;;;;;;;;5068159;28;20906;-68
2021/07/28 03:39:39;;;;;;;7.97;7.27;;;;;;;;;;5070420;28;20472;-73
2021/07/28 03:42:05;;;;;;;11.83;8.23;;;;;;;;;;5069650;28;20557;-72
2021/07/28 03:44:31;;;;;;;8.07;7.37;;;;;;;;;;5071121;28;20459;-71
2021/07/28 03:46:57;;;;;;;7.93;7.20;;;;;;;;;;5085339;28;20446;-71
2021/07/28 03:49:23;;;;;;;8.00;7.20;;;;;;;;;;5075310;28;20425;-74
2021/07/28 03:51:49;;;;;;;7.23;6.53;;;;;;;;;;5076312;28;20438;-70
2021/07/28 03:54:15;;;;;;;7.93;7.13;;;;;;;;;;5073615;28;20414;-72
2021/07/28 03:56:41;;;;;;;8.07;7.20;;;;;;;;;;5068356;28;20447;-71
2021/07/28 03:59:07;;;;;;;8.30;7.53;;;;;;;;;;5076697;28;20607;-74
2021/07/28 04:01:33;;;;;;;8.93;7.57;;;;;;;;;;5061069;28;20404;-74
2021/07/28 04:03:59;;;;;;;7.27;6.60;;;;;;;;;;5081026;28;20945;-71
2021/07/28 04:06:25;;;;;;;7.90;7.10;;;;;;;;;;5068073;28;20554;-71
2021/07/28 04:08:51;;;;;;;8.80;7.90;;;;;;;;;;5073417;28;20846;-70
2021/07/28 04:11:17;;;;;;;8.47;7.63;;;;;;;;;;5073602;28;20418;-74
2021/07/28 04:13:43;;;;;;;8.90;8.00;;;;;;;;;;5073401;28;20796;-74
2021/07/28 04:16:09;;;;;;;9.03;7.73;;;;;;;;;;5074062;28;20418;-72
2021/07/28 04:18:35;;;;;;;8.63;7.83;;;;;;;;;;5073010;28;20423;-73
2021/07/28 04:21:01;;;;;;;11.10;8.40;;;;;;;;;;5073224;28;20418;-73
2021/07/28 04:23:27;;;;;;;8.53;7.73;;;;;;;;;;5074046;28;20892;-69
2021/07/28 04:25:53;;;;;;;8.73;7.20;;;;;;;;;;5073502;28;20557;-71
2021/07/28 04:28:19;;;;;;;8.70;7.90;;;;;;;;;;5073409;28;20425;-71
2021/07/28 04:30:45;;;;;;;8.83;7.70;;;;;;;;;;5072340;28;20419;-71
2021/07/28 04:33:11;;;;;;;10.87;8.50;;;;;;;;;;5073714;28;20426;-69
2021/07/28 04:35:37;;;;;;;10.27;9.23;;;;;;;;;;5073560;28;20410;-70
2021/07/28 04:38:03;;;;;;;9.73;8.70;;;;;;;;;;5073102;28;20414;-71
2021/07/28 04:40:29;;;;;;;10.53;8.60;;;;;;;;;;5073448;28;20415;-69
2021/07/28 04:42:55;;;;;;;10.03;9.00;;;;;;;;;;5065732;28;20494;-71
2021/07/28 04:45:21;;;;;;;9.77;8.77;;;;;;;;;;5080676;28;20462;-73
2021/07/28 04:47:47;;;;;;;9.90;8.70;;;;;;;;;;5067721;28;20419;-70
2021/07/28 04:50:13;;;;;;;12.67;9.10;;;;;;;;;;5073499;28;20437;-73
2021/07/28 04:52:39;;;;;;;10.07;9.17;;;;;;;;;;5068886;28;20510;-71
2021/07/28 04:55:05;;;;;;;9.90;8.90;;;;;;;;;;5080182;28;20819;-69
2021/07/28 04:57:31;;;;;;;11.87;10.03;;;;;;;;;;5078743;28;20444;-71
2021/07/28 04:59:57;;;;;;;11.97;10.70;;;;;;;;;;5058291;28;20931;-71
2021/07/28 05:02:25;;;;;;;13.97;10.90;;;;;;;;;;5074494;28;20468;-72
2021/07/28 05:04:51;;;;;;;12.27;10.10;;;;;;;;;;5071201;28;20466;-71
2021/07/28 05:07:18;;;;;;;11.63;9.37;;;;;;;;;;5073017;28;20410;-72
2021/07/28 05:09:44;;;;;;;11.80;9.63;;;;;;;;;;5083851;28;20516;-69
2021/07/28 05:12:10;;;;;;;10.50;9.47;;;;;;;;;;5093261;28;20431;-70
2021/07/28 05:14:36;;;;;;;11.43;10.27;;;;;;;;;;5071818;28;20423;-71
2021/07/28 05:17:02;;;;;;;11.93;10.30;;;;;;;;;;5072051;28;20431;-70
2021/07/28 05:19:28;;;;;;;11.40;10.30;;;;;;;;;;5073315;28;20438;-70
2021/07/28 05:21:54;;;;;;;11.37;10.10;;;;;;;;;;5072458;28;20426;-70
2021/07/28 05:24:20;;;;;;;13.47;11.57;;;;;;;;;;5073047;28;20427;-71
2021/07/28 05:26:46;;;;;;;12.43;10.93;;;;;;;;;;5069905;28;20781;-70
2021/07/28 05:29:12;;;;;;;13.23;11.40;;;;;;;;;;5069183;28;20419;-70
2021/07/28 05:31:38;;;;;;;12.57;11.37;;;;;;;;;;5072993;28;20414;-71
2021/07/28 05:34:04;;;;;;;17.77;13.80;;;;;;;;;;5068504;28;20742;-72
2021/07/28 05:36:30;;;;;;;13.57;12.17;;;;;;;;;;5079217;28;20418;-71
2021/07/28 05:38:56;;;;;;;15.67;11.97;;;;;;;;;;5072564;28;20822;-72
2021/07/28 05:41:22;;;;;;;13.10;11.43;;;;;;;;;;5072156;28;20509;-70
2021/07/28 05:43:48;;;;;;;13.67;11.77;;;;;;;;;;5072937;28;21015;-72
2021/07/28 05:46:14;;;;;;;14.40;11.90;;;;;;;;;;5076659;28;20459;-72
2021/07/28 05:48:40;;;;;;;12.73;11.10;;;;;;;;;;5079769;28;20418;-71
2021/07/28 05:51:06;;;;;;;14.70;11.30;;;;;;;;;;5072900;28;20404;-74
2021/07/28 05:53:34;;;;;;;16.33;13.00;;;;;;;;;;5087344;28;20442;-74
2021/07/28 05:56:00;;;;;;;16.03;13.50;;;;;;;;;;5064374;28;20454;-72
2021/07/28 05:58:26;;;;;;;14.10;12.37;;;;;;;;;;5074337;28;20458;-73
2021/07/28 06:00:52;;;;;;;13.50;11.20;;;;;;;;;;5081548;28;20465;-73
2021/07/28 06:03:18;;;;;;;15.00;11.43;;;;;;;;;;5074876;28;20494;-71
2021/07/28 06:05:44;;;;;;;13.70;10.67;;;;;;;;;;5076086;28;20463;-74
2021/07/28 06:08:10;;;;;;;14.57;11.13;;;;;;;;;;5076028;28;20411;-72
2021/07/28 06:10:36;;;;;;;11.73;10.63;;;;;;;;;;5076015;28;20429;-71
2021/07/28 06:13:02;;;;;;;13.57;11.87;;;;;;;;;;5075915;28;20438;-72
2021/07/28 06:15:29;;;;;;;13.33;10.73;;;;;;;;;;5076115;28;20424;-72
2021/07/28 06:17:56;;;;;;;11.83;9.70;;;;;;;;;;5075346;28;20429;-70
2021/07/28 06:20:22;;;;;;;11.30;9.90;;;;;;;;;;5075522;28;20430;-70
2021/07/28 06:22:48;;;;;;;13.43;10.00;;;;;;;;;;5075507;28;20781;-73
2021/07/28 06:25:14;;;;;;;10.10;8.73;;;;;;;;;;5075454;28;20473;-73
2021/07/28 06:27:40;;;;;;;10.43;8.73;;;;;;;;;;5075572;28;20468;-73
2021/07/28 06:30:06;;;;;;;9.77;8.77;;;;;;;;;;5074142;28;20842;-70
2021/07/28 06:32:32;;;;;;;8.93;8.03;;;;;;;;;;5076056;28;20795;-72
2021/07/28 06:34:58;;;;;;;11.23;9.07;;;;;;;;;;5076367;28;20410;-72
2021/07/28 06:37:24;;;;;;;9.67;8.67;;;;;;;;;;5078338;28;20430;-74
2021/07/28 06:39:50;;;;;;;9.30;8.20;;;;;;;;;;5075878;28;20422;-70
2021/07/28 06:42:16;;;;;;;10.33;9.00;;;;;;;;;;5075462;28;20442;-74
2021/07/28 06:44:42;;;;;;;10.47;8.77;;;;;;;;;;5074504;28;20932;-73
2021/07/28 06:47:08;;;;;;;9.43;7.63;;;;;;;;;;5058711;28;20423;-71
2021/07/28 06:49:34;;;;;;;9.60;8.20;;;;;;;;;;5066386;28;20542;-73
2021/07/28 06:52:00;;;;;;;9.43;8.23;;;;;;;;;;5063243;28;20429;-73
2021/07/28 06:54:26;;;;;;;9.17;8.27;;;;;;;;;;5079604;28;21050;-74
2021/07/28 06:56:52;;;;;;;9.57;8.67;;;;;;;;;;5078715;28;20419;-70
2021/07/28 06:59:18;;;;;;;9.57;8.67;;;;;;;;;;5071857;28;20414;-72
2021/07/28 07:01:45;;;;;;;9.63;8.67;;;;;;;;;;5071549;28;20446;-70
2021/07/28 07:04:11;;;;;;;9.00;8.10;;;;;;;;;;5059688;28;20422;-72
2021/07/28 07:06:37;;;;;;;9.53;8.63;;;;;;;;;;5070200;28;20585;-71
2021/07/28 07:09:03;;;;;;;10.30;9.30;;;;;;;;;;5065019;28;20513;-71
2021/07/28 07:11:29;;;;;;;11.10;9.53;;;;;;;;;;5068627;28;20436;-71
2021/07/28 07:13:55;;;;;;;10.40;9.40;;;;;;;;;;5087857;28;20465;-73
2021/07/28 07:16:21;;;;;;;9.93;9.03;;;;;;;;;;5086142;28;20421;-71
2021/07/28 07:18:47;;;;;;;10.63;9.73;;;;;;;;;;5077435;28;20460;-70
2021/07/28 07:21:13;;;;;;;9.70;8.80;;;;;;;;;;5072457;28;20846;-70
2021/07/28 07:23:39;;;;;;;10.37;9.37;;;;;;;;;;5091436;28;20472;-71
2021/07/28 07:26:05;;;;;;;9.83;8.93;;;;;;;;;;5078591;28;20492;-72
2021/07/28 07:28:31;;;;;;;10.80;9.80;;;;;;;;;;5077824;28;20406;-73
2021/07/28 07:30:57;;;;;;;10.00;9.03;;;;;;;;;;5070940;28;20507;-71
2021/07/28 07:33:40;;;;;;;10.83;9.60;;;;;;;;;;5078984;28;20999;-72
2021/07/28 07:36:06;;;;;;;11.20;10.07;;;;;;;;;;5091291;28;20778;-72
2021/07/28 07:38:32;;;;;;;10.40;9.50;;;;;;;;;;5078970;28;20438;-70
2021/07/28 07:40:58;;;;;;;10.10;9.30;;;;;;;;;;5075262;28;20428;-74
2021/07/28 07:43:24;;;;;;;10.23;9.33;;;;;;;;;;5078546;28;20815;-73
2021/07/28 07:45:55;;;;;;;10.07;9.17;;;;;;;;;;5075030;28;20453;-69
2021/07/28 07:48:21;;;;;;;9.63;8.57;;;;;;;;;;5078478;28;20915;-71
2021/07/28 07:50:47;;;;;;;10.67;9.27;;;;;;;;;;5070765;28;20411;-73
2021/07/28 07:53:12;;;;;;;9.13;8.23;;;;;;;;;;5070565;28;20462;-71
2021/07/28 07:55:39;;;;;;;9.43;8.60;;;;;;;;;;5089015;28;20452;-71
2021/07/28 07:58:05;;;;;;;9.50;8.70;;;;;;;;;;5070092;28;20904;-74
2021/07/28 08:00:31;;;;;;;10.10;9.20;;;;;;;;;;5089044;28;20433;-70
2021/07/28 08:02:57;;;;;;;10.10;8.83;;;;;;;;;;5070306;28;20442;-70
2021/07/28 08:05:23;;;;;;;10.37;8.73;;;;;;;;;;5070143;28;20512;-73
2021/07/28 08:07:49;;;;;;;9.97;9.03;;;;;;;;;;5069859;28;20938;-74
2021/07/28 08:10:15;;;;;;;10.40;8.43;;;;;;;;;;5074829;28;20422;-71
2021/07/28 08:12:41;;;;;;;10.00;9.20;;;;;;;;;;5088778;28;20945;-70
2021/07/28 08:15:07;;;;;;;9.23;8.40;;;;;;;;;;5089427;28;20456;-73
2021/07/28 08:17:33;;;;;;;10.20;9.23;;;;;;;;;;5084561;28;20475;-70
2021/07/28 08:20:01;;;;;;;10.30;9.30;;;;;;;;;;5069985;28;20462;-71
2021/07/28 08:22:27;;;;;;;9.07;8.37;;;;;;;;;;5069662;28;21501;-73
2021/07/28 08:24:53;;;;;;;9.10;8.30;;;;;;;;;;5071128;28;20944;-72
2021/07/28 08:27:19;;;;;;;11.10;10.03;;;;;;;;;;5069553;28;20524;-72
2021/07/28 08:29:45;;;;;;;9.67;8.93;;;;;;;;;;5075199;28;20417;-73
2021/07/28 08:32:11;;;;;;;9.37;8.57;;;;;;;;;;5090023;28;20457;-72
2021/07/28 08:34:37;;;;;;;9.97;9.07;;;;;;;;;;5080550;28;21000;-73
2021/07/28 08:37:03;;;;;;;12.40;9.37;;;;;;;;;;5082268;28;20416;-70
2021/07/28 08:39:29;;;;;;;9.83;8.90;;;;;;;;;;5072848;28;20457;-71
2021/07/28 08:41:59;;;;;;;9.60;8.70;;;;;;;;;;5069863;28;20410;-74
2021/07/28 08:44:26;;;;;;;10.10;9.27;;;;;;;;;;5068550;28;20459;-72
2021/07/28 08:46:54;;;;;;;9.90;8.90;;;;;;;;;;5069523;28;20411;-73
2021/07/28 08:49:20;;;;;;;10.43;9.40;;;;;;;;;;5069570;28;20430;-72
2021/07/28 08:51:47;;;;;;;10.57;9.67;;;;;;;;;;5069554;28;20426;-71
2021/07/28 08:54:13;;;;;;;9.83;8.93;;;;;;;;;;5069397;28;21233;-70
2021/07/28 08:56:40;;;;;;;8.03;7.33;;;;;;;;;;5069236;28;20438;-70
2021/07/28 08:59:06;;;;;;;8.30;7.40;;;;;;;;;;5065904;28;20423;-73
2021/07/28 09:01:33;;;;;;;8.23;7.53;;;;;;;;;;5068074;28;20919;-73
2021/07/28 09:03:59;;;;;;;7.10;6.50;;;;;;;;;;5068691;28;20447;-74
2021/07/28 09:06:28;;;;;;;7.43;6.83;;;;;;;;;;5069183;28;20473;-74
2021/07/28 09:08:58;;;;;;;9.10;7.43;;;;;;;;;;5068721;28;20426;-73
2021/07/28 09:11:24;;;;;;;8.77;7.97;;;;;;;;;;5069628;28;20414;-73
2021/07/28 09:13:53;;;;;;;7.80;7.20;;;;;;;;;;5069103;28;20446;-71
2021/07/28 09:16:19;;;;;;;9.00;8.23;;;;;;;;;;5068942;28;20425;-72
2021/07/28 09:18:52;;;;;;;8.50;7.70;;;;;;;;;;5068792;28;20426;-73
2021/07/28 09:21:21;;;;;;;10.23;8.33;;;;;;;;;;5069438;28;20561;-72
2021/07/28 09:23:48;;;;;;;9.57;8.63;;;;;;;;;;5079507;28;20449;-75
2021/07/28 09:26:34;;;;;;;7.83;7.13;;;;;;;;;;5087147;28;20500;-72
2021/07/28 09:29:07;;;;;;;7.67;6.90;;;;;;;;;;5080644;28;20971;-71
2021/07/28 09:31:38;;;;;;;8.87;7.63;;;;;;;;;;5063023;28;20414;-71
2021/07/28 09:34:30;;;;;;;8.70;8.00;;;;;;;;;;5075468;28;20449;-69
2021/07/28 09:36:57;;;;;;;8.60;7.80;;;;;;;;;;5075502;28;20499;-72
2021/07/28 09:39:26;;;;;;;7.40;6.90;;;;;;;;;;5074898;28;20418;-69
2021/07/28 09:41:53;;;;;;;8.67;7.77;;;;;;;;;;5075042;28;20422;-72
2021/07/28 09:44:32;;;;;;;8.37;7.57;;;;;;;;;;5074970;28;20426;-73
2021/07/28 09:47:17;;;;;;;7.63;7.03;;;;;;;;;;5075515;28;20926;-71
2021/07/28 09:49:47;;;;;;;8.37;7.57;;;;;;;;;;5064845;28;20409;-72
2021/07/28 09:52:21;;;;;;;8.60;7.90;;;;;;;;;;5075237;28;20489;-71
2021/07/28 09:54:48;;;;;;;7.40;6.70;;;;;;;;;;5075312;28;20428;-71
2021/07/28 09:57:20;;;;;;;7.90;7.23;;;;;;;;;;5079790;28;20421;-71
2021/07/28 09:59:49;;;;;;;8.53;7.73;;;;;;;;;;5094163;28;20757;-69
2021/07/28 10:02:15;;;;;;;8.77;8.00;;;;;;;;;;5080307;28;20521;-72
2021/07/28 10:04:47;;;;;;;8.43;7.77;;;;;;;;;;5075102;28;20426;-70
2021/07/28 10:07:15;;;;;;;8.10;7.40;;;;;;;;;;5075094;28;20422;-74
2021/07/28 10:09:43;;;;;;;8.13;7.53;;;;;;;;;;5075298;28;20420;-70
2021/07/28 10:12:10;;;;;;;8.03;7.23;;;;;;;;;;5082595;28;20437;-71
2021/07/28 10:14:36;;;;;;;8.00;7.40;;;;;;;;;;5095435;28;20437;-71
2021/07/28 10:17:04;;;;;;;7.83;7.13;;;;;;;;;;5084126;28;20542;-74
2021/07/28 10:19:32;;;;;;;9.13;8.20;;;;;;;;;;5075329;28;20484;-73
2021/07/28 10:22:01;;;;;;;7.53;6.93;;;;;;;;;;5075102;28;20539;-72
2021/07/28 10:24:27;;;;;;;8.00;7.20;;;;;;;;;;5074007;28;20422;-71
2021/07/28 10:26:54;;;;;;;6.47;5.97;;;;;;;;;;5075135;28;20425;-73
2021/07/28 10:29:21;;;;;;;6.50;6.00;;;;;;;;;;5075108;28;20775;-73
2021/07/28 10:31:51;;;;;;;7.23;6.63;;;;;;;;;;5075405;28;20449;-72
2021/07/28 10:34:24;;;;;;;7.67;6.60;;;;;;;;;;5074559;28;20460;-70
2021/07/28 10:36:54;;;;;;;6.73;6.23;;;;;;;;;;5075611;28;20433;-70
2021/07/28 10:39:42;;;;;;;6.90;6.17;;;;;;;;;;5074190;28;20426;-69
2021/07/28 10:42:18;;;;;;;9.47;6.43;;;;;;;;;;5071674;28;20450;-72
2021/07/28 10:45:02;;;;;;;6.50;6.00;;;;;;;;;;5081105;28;20775;-72
2021/07/28 10:47:41;;;;;;;6.40;5.90;;;;;;;;;;5068555;28;20414;-69
2021/07/28 10:50:08;;;;;;;8.47;6.70;;;;;;;;;;5071757;28;20438;-71
2021/07/28 10:52:38;;;;;;;7.27;6.67;;;;;;;;;;5071205;28;20441;-69
2021/07/28 10:55:04;;;;;;;6.80;6.20;;;;;;;;;;5084934;28;20421;-70
2021/07/28 10:57:38;;;;;;;7.93;6.67;;;;;;;;;;5077608;28;20430;-71
2021/07/28 11:00:05;;;;;;;8.77;7.00;;;;;;;;;;5071628;28;20410;-71
2021/07/28 11:02:50;;;;;;;10.00;7.07;;;;;;;;;;5071128;28;20862;-71
2021/07/28 11:05:19;;;;;;;11.30;7.50;;;;;;;;;;5069439;28;20888;-74
2021/07/28 11:08:07;;;;;;;6.27;5.87;;;;;;;;;;5070949;28;20426;-73
2021/07/28 11:10:34;;;;;;;6.50;5.80;;;;;;;;;;5071150;28;20945;-69
2021/07/28 11:13:04;;;;;;;6.73;6.13;;;;;;;;;;5071316;28;20463;-71
2021/07/28 11:15:30;;;;;;;6.10;5.50;;;;;;;;;;5070861;28;20461;-72
2021/07/28 11:17:56;;;;;;;8.87;8.23;;;;;;;;;;5064424;28;20422;-72
2021/07/28 11:20:28;;;;;;;7.10;6.40;;;;;;;;;;5070972;28;20815;-70
2021/07/28 11:23:13;;;;;;;5.80;5.40;;;;;;;;;;5071005;28;20512;-72
2021/07/28 11:25:39;;;;;;;5.60;5.20;;;;;;;;;;5070750;28;20474;-70
2021/07/28 11:28:08;;;;;;;7.43;6.10;;;;;;;;;;5070655;28;20748;-70
2021/07/28 11:30:34;;;;;;;5.67;5.17;;;;;;;;;;5070933;28;20430;-73
2021/07/28 11:33:13;;;;;;;6.00;5.60;;;;;;;;;;5071042;28;20480;-69
2021/07/28 11:35:42;;;;;;;6.03;5.43;;;;;;;;;;5071020;28;20852;-72
2021/07/28 11:38:19;;;;;;;5.70;5.30;;;;;;;;;;5067855;28;20446;-71
2021/07/28 11:40:46;;;;;;;5.87;5.47;;;;;;;;;;5070521;28;20509;-69
2021/07/28 11:43:21;;;;;;;6.07;5.60;;;;;;;;;;5070858;28;21260;-72
2021/07/28 11:45:47;;;;;;;6.40;5.80;;;;;;;;;;5070543;28;21037;-72
2021/07/28 11:48:31;;;;;;;5.80;5.30;;;;;;;;;;5070473;28;20749;-71
2021/07/28 11:51:05;;;;;;;7.00;6.50;;;;;;;;;;5070287;28;20419;-73
2021/07/28 11:53:31;;;;;;;6.60;6.10;;;;;;;;;;5070491;28;20441;-73
2021/07/28 11:56:10;;;;;;;6.80;6.30;;;;;;;;;;5070406;28;20556;-69
2021/07/28 11:58:41;;;;;;;7.00;6.40;;;;;;;;;;5085925;28;20470;-72
2021/07/28 12:01:26;;;;;;;7.17;6.67;;;;;;;;;;5080201;28;20412;-72
2021/07/28 12:03:53;;;;;;;6.47;5.87;;;;;;;;;;5078301;28;20481;-70
2021/07/28 12:06:29;;;;;;;6.50;6.00;;;;;;;;;;5070028;28;20469;-72
2021/07/28 12:09:14;;;;;;;7.30;6.70;;;;;;;;;;5068540;28;20430;-75
2021/07/28 12:11:59;;;;;;;7.60;7.00;;;;;;;;;;5070229;28;20457;-74
2021/07/28 12:14:34;;;;;;;6.37;5.97;;;;;;;;;;5070095;28;20489;-71
2021/07/28 12:17:04;;;;;;;7.33;6.77;;;;;;;;;;5068878;28;20430;-73
2021/07/28 12:19:41;;;;;;;6.43;5.97;;;;;;;;;;5084731;28;20432;-72
2021/07/28 12:22:11;;;;;;;5.23;4.87;;;;;;;;;;5072905;28;22128;-71
2021/07/28 12:24:38;;;;;;;4.90;4.60;;;;;;;;;;5069838;28;20822;-73
2021/07/28 12:27:23;;;;;;;4.80;4.40;;;;;;;;;;5069529;28;20503;-73
2021/07/28 12:29:58;;;;;;;4.83;4.00;;;;;;;;;;5069886;28;20410;-73
2021/07/28 12:32:40;;;;;;;5.40;4.90;;;;;;;;;;5069465;28;20543;-69
2021/07/28 12:35:08;;;;;;;4.87;4.47;;;;;;;;;;5074771;28;20431;-73
2021/07/28 12:37:34;;;;;;;5.07;4.67;;;;;;;;;;5068883;28;20438;-71
2021/07/28 12:40:00;;;;;;;6.90;4.57;;;;;;;;;;5069096;28;20516;-72
2021/07/28 12:42:26;;;;;;;5.40;4.90;;;;;;;;;;5071645;28;20464;-73
2021/07/28 12:44:52;;;;;;;5.60;5.20;;;;;;;;;;5069380;28;20414;-72
2021/07/28 12:47:19;;;;;;;5.60;5.10;;;;;;;;;;5069609;28;20412;-73
2021/07/28 12:49:45;;;;;;;6.00;5.60;;;;;;;;;;5068190;28;20609;-74
2021/07/28 12:52:11;;;;;;;6.00;5.50;;;;;;;;;;5069435;28;20541;-70
2021/07/28 12:54:37;;;;;;;5.83;5.33;;;;;;;;;;5069628;28;20417;-73
2021/07/28 12:57:03;;;;;;;5.67;5.27;;;;;;;;;;5072114;28;20826;-73
2021/07/28 12:59:29;;;;;;;5.30;4.90;;;;;;;;;;5089799;28;20417;-73
2021/07/28 13:01:58;;;;;;;5.70;5.27;;;;;;;;;;5076179;28;20432;-72
2021/07/28 13:04:24;;;;;;;5.80;5.40;;;;;;;;;;5088858;28;20907;-73
2021/07/28 13:06:56;;;;;;;5.90;5.40;;;;;;;;;;5074722;28;20480;-72
2021/07/28 13:09:22;;;;;;;6.10;5.60;;;;;;;;;;5074866;28;20427;-71
2021/07/28 13:11:48;;;;;;;6.60;6.10;;;;;;;;;;5069411;28;20426;-68
2021/07/28 13:14:14;;;;;;;6.60;6.07;;;;;;;;;;5069112;28;20422;-67
2021/07/28 13:16:40;;;;;;;8.70;5.87;;;;;;;;;;5086356;28;20425;-73
2021/07/28 13:19:06;;;;;;;6.47;5.93;;;;;;;;;;5086784;28;20417;-71
2021/07/28 13:21:32;;;;;;;6.37;5.87;;;;;;;;;;5069197;28;20414;-71
2021/07/28 13:23:58;;;;;;;6.50;5.80;;;;;;;;;;5068966;28;21044;-70
2021/07/28 13:26:24;;;;;;;7.70;6.20;;;;;;;;;;5069158;28;20462;-72
2021/07/28 13:28:50;;;;;;;5.60;5.10;;;;;;;;;;5067302;28;20476;-72
2021/07/28 13:31:16;;;;;;;8.17;7.37;;;;;;;;;;5086387;28;20445;-71
2021/07/28 13:33:42;;;;;;;5.10;4.70;;;;;;;;;;5079248;28;20444;-71
2021/07/28 13:36:08;;;;;;;6.53;5.93;;;;;;;;;;5068488;28;20498;-72
2021/07/28 13:38:34;;;;;;;6.00;5.50;;;;;;;;;;5068682;28;20836;-73
2021/07/28 13:41:00;;;;;;;5.23;4.73;;;;;;;;;;5068632;28;20440;-70
2021/07/28 13:43:26;;;;;;;5.27;4.87;;;;;;;;;;5068827;28;20517;-73
2021/07/28 13:45:52;;;;;;;9.00;5.00;;;;;;;;;;5073338;28;20992;-71
2021/07/28 13:48:18;;;;;;;5.60;5.10;;;;;;;;;;5088184;28;20452;-72
2021/07/28 13:50:44;;;;;;;4.80;4.50;;;;;;;;;;5068898;28;21037;-74
2021/07/28 13:53:10;;;;;;;5.63;5.13;;;;;;;;;;5068926;28;20449;-70
2021/07/28 13:55:36;;;;;;;6.80;6.20;;;;;;;;;;5073552;28;20801;-75
2021/07/28 13:58:02;;;;;;;6.27;5.77;;;;;;;;;;5070530;28;20494;-70
2021/07/28 14:00:28;;;;;;;5.63;5.10;;;;;;;;;;5068740;28;20457;-72
2021/07/28 14:02:54;;;;;;;6.30;5.80;;;;;;;;;;5068875;28;21015;-72
2021/07/28 14:05:20;;;;;;;6.50;5.67;;;;;;;;;;5068442;28;20516;-71
2021/07/28 14:07:46;;;;;;;6.50;5.90;;;;;;;;;;5068669;28;20821;-72
2021/07/28 14:10:12;;;;;;;6.20;5.70;;;;;;;;;;5073097;28;20562;-74
2021/07/28 14:12:39;;;;;;;6.30;5.70;;;;;;;;;;5088898;28;20429;-72
2021/07/28 14:15:06;;;;;;;6.40;5.13;;;;;;;;;;5074160;28;20434;-72
2021/07/28 14:17:32;;;;;;;6.93;5.17;;;;;;;;;;5072233;28;20849;-70
2021/07/28 14:19:58;;;;;;;5.30;4.90;;;;;;;;;;5071988;28;20437;-71
2021/07/28 14:22:25;;;;;;;4.43;4.13;;;;;;;;;;5072438;28;20477;-73
2021/07/28 14:24:51;;;;;;;4.47;4.13;;;;;;;;;;5072075;28;20434;-74
2021/07/28 14:27:17;;;;;;;4.40;4.10;;;;;;;;;;5072179;28;20425;-73
2021/07/28 14:29:43;;;;;;;4.30;4.00;;;;;;;;;;5071474;28;20418;-70
2021/07/28 14:32:09;;;;;;;4.47;4.17;;;;;;;;;;5072033;28;20782;-71
2021/07/28 14:34:35;;;;;;;4.80;3.63;;;;;;;;;;5071543;28;20442;-69
2021/07/28 14:37:01;;;;;;;3.93;3.63;;;;;;;;;;5071983;28;21097;-72
2021/07/28 14:39:29;;;;;;;3.70;3.30;;;;;;;;;;5071593;28;20484;-73
2021/07/28 14:41:55;;;;;;;4.73;4.10;;;;;;;;;;5072128;28;20475;-74
2021/07/28 14:44:21;;;;;;;4.33;4.03;;;;;;;;;;5071684;28;20922;-71